createdAt,value
2019-02-15T00:01:44.357Z,21.73
2019-02-15T00:04:12.640Z,22.10
2019-02-15T00:06:40.894Z,23.47
2019-02-15T00:09:09.255Z,21.83
2019-02-15T00:11:37.529Z,22.63
2019-02-15T00:14:05.881Z,23.33
2019-02-15T00:16:34.184Z,21.43
2019-02-15T00:19:04.134Z,20.47
2019-02-15T00:21:32.447Z,23.13
2019-02-15T00:24:00.730Z,22.07
2019-02-15T00:26:28.970Z,22.53
2019-02-15T00:28:57.239Z,21.27
2019-02-15T00:31:25.606Z,21.20
2019-02-15T00:33:53.941Z,21.77
2019-02-15T00:36:22.234Z,22.17
2019-02-15T00:38:50.584Z,22.20
2019-02-15T00:41:18.859Z,21.47
2019-02-15T00:43:47.152Z,21.00
2019-02-15T00:46:17.059Z,20.77
2019-02-15T00:48:45.339Z,22.47
2019-02-15T00:51:24.154Z,22.53
2019-02-15T00:53:54.066Z,21.10
2019-02-15T00:56:23.977Z,21.07
2019-02-15T00:59:10.087Z,22.30
2019-02-15T01:01:39.991Z,21.80
2019-02-15T01:04:11.609Z,21.27
2019-02-15T01:06:57.652Z,21.27
2019-02-15T01:09:30.577Z,19.80
2019-02-15T01:12:06.716Z,20.43
2019-02-15T01:14:35.016Z,23.30
2019-02-15T01:17:03.809Z,21.47
2019-02-15T01:19:32.103Z,22.23
2019-02-15T01:22:00.415Z,21.40
2019-02-15T01:24:28.686Z,21.33
2019-02-15T01:27:01.357Z,22.57
2019-02-15T01:29:37.424Z,21.67
2019-02-15T01:32:07.380Z,21.73
2019-02-15T01:34:40.266Z,21.67
2019-02-15T01:37:22.208Z,21.17
2019-02-15T01:39:53.088Z,22.43
2019-02-15T01:42:23.034Z,22.73
2019-02-15T01:44:52.962Z,22.47
2019-02-15T01:47:21.417Z,21.67
2019-02-15T01:49:49.699Z,21.67
2019-02-15T01:52:17.990Z,23.93
2019-02-15T01:54:46.271Z,23.30
2019-02-15T01:57:14.543Z,22.30
2019-02-15T01:59:42.821Z,22.00
2019-02-15T02:02:11.156Z,21.93
2019-02-15T02:04:39.798Z,22.63
2019-02-15T02:07:08.158Z,21.37
2019-02-15T02:09:36.454Z,20.67
2019-02-15T02:12:05.613Z,22.23
2019-02-15T02:14:33.902Z,22.43
2019-02-15T02:17:02.170Z,22.40
2019-02-15T02:19:30.470Z,21.70
2019-02-15T02:21:58.749Z,21.23
2019-02-15T02:24:27.064Z,23.00
2019-02-15T02:26:55.396Z,21.10
2019-02-15T02:29:23.666Z,21.40
2019-02-15T02:31:51.966Z,21.30
2019-02-15T02:34:20.205Z,20.60
2019-02-15T02:36:50.829Z,20.03
2019-02-15T02:39:19.186Z,21.00
2019-02-15T02:41:47.448Z,21.87
2019-02-15T02:44:15.726Z,20.27
2019-02-15T02:46:43.984Z,22.27
2019-02-15T02:49:12.297Z,22.47
2019-02-15T02:51:40.573Z,22.80
2019-02-15T02:54:08.883Z,21.20
2019-02-15T02:56:37.142Z,23.30
2019-02-15T02:59:05.404Z,22.33
2019-02-15T03:01:33.691Z,20.50
2019-02-15T03:04:01.965Z,20.43
2019-02-15T03:06:30.223Z,20.30
2019-02-15T03:08:58.487Z,21.10
2019-02-15T03:11:26.753Z,20.97
2019-02-15T03:13:55.043Z,22.97
2019-02-15T03:16:23.310Z,22.90
2019-02-15T03:18:51.577Z,22.50
2019-02-15T03:21:19.850Z,22.30
2019-02-15T03:23:48.156Z,21.47
2019-02-15T03:26:16.473Z,22.87
2019-02-15T03:28:44.736Z,21.70
2019-02-15T03:31:13.000Z,21.47
2019-02-15T03:33:41.277Z,21.83
2019-02-15T03:36:11.202Z,20.87
2019-02-15T03:38:41.116Z,21.03
2019-02-15T03:41:11.027Z,23.27
2019-02-15T03:43:39.300Z,22.87
2019-02-15T03:46:07.562Z,24.83
2019-02-15T03:48:35.824Z,23.83
2019-02-15T03:51:04.081Z,23.73
2019-02-15T03:53:32.342Z,23.67
2019-02-15T03:56:00.602Z,23.17
2019-02-15T03:58:28.876Z,23.07
2019-02-15T04:00:57.134Z,25.60
2019-02-15T04:03:25.418Z,25.37
2019-02-15T04:05:53.689Z,25.93
2019-02-15T04:08:22.021Z,26.17
2019-02-15T04:10:50.288Z,28.13
2019-02-15T04:13:18.565Z,25.63
2019-02-15T04:15:46.852Z,26.67
2019-02-15T04:18:15.105Z,26.23
2019-02-15T04:20:43.403Z,24.77
2019-02-15T04:23:11.640Z,26.00
2019-02-15T04:25:39.896Z,23.67
2019-02-15T04:28:08.170Z,24.60
2019-02-15T04:30:36.436Z,24.10
2019-02-15T04:33:04.728Z,25.17
2019-02-15T04:35:32.999Z,24.30
2019-02-15T04:38:01.254Z,24.47
2019-02-15T04:40:29.546Z,25.03
2019-02-15T04:42:57.811Z,25.70
2019-02-15T04:45:26.066Z,25.80
2019-02-15T04:47:54.512Z,27.07
2019-02-15T04:50:22.795Z,25.20
2019-02-15T04:52:51.072Z,24.53
2019-02-15T04:55:19.342Z,25.57
2019-02-15T04:57:48.293Z,26.23
2019-02-15T05:00:16.541Z,24.37
2019-02-15T05:02:47.396Z,25.87
2019-02-15T05:05:15.654Z,23.10
2019-02-15T05:07:43.922Z,24.30
2019-02-15T05:10:12.220Z,25.27
2019-02-15T05:12:40.479Z,23.43
2019-02-15T05:15:09.220Z,24.77
2019-02-15T05:17:37.507Z,24.53
2019-02-15T05:20:07.414Z,24.17
2019-02-15T05:22:35.683Z,23.30
2019-02-15T05:25:04.017Z,24.07
2019-02-15T05:27:32.282Z,24.13
2019-02-15T05:30:00.578Z,25.30
2019-02-15T05:32:28.886Z,26.27
2019-02-15T05:34:57.115Z,28.07
2019-02-15T05:37:25.373Z,27.17
2019-02-15T05:39:53.630Z,27.37
2019-02-15T05:42:21.903Z,25.70
2019-02-15T05:44:50.165Z,27.20
2019-02-15T05:47:18.472Z,25.50
2019-02-15T05:49:46.743Z,26.13
2019-02-15T05:52:15.000Z,25.23
2019-02-15T05:54:43.274Z,25.70
2019-02-15T05:57:11.542Z,25.10
2019-02-15T05:59:39.804Z,24.13
2019-02-15T06:02:08.143Z,25.10
2019-02-15T06:04:36.398Z,25.33
2019-02-15T06:07:04.705Z,24.43
2019-02-15T06:09:32.967Z,24.77
2019-02-15T06:12:01.225Z,26.93
2019-02-15T06:14:29.501Z,26.27
2019-02-15T06:16:57.754Z,24.73
2019-02-15T06:19:26.149Z,26.37
2019-02-15T06:21:54.419Z,27.63
2019-02-15T06:24:22.681Z,29.20
2019-02-15T06:26:51.021Z,29.43
2019-02-15T06:29:19.317Z,31.67
2019-02-15T06:31:47.580Z,31.33
2019-02-15T06:34:15.850Z,30.43
2019-02-15T06:36:44.140Z,30.87
2019-02-15T06:39:12.399Z,29.13
2019-02-15T06:41:40.670Z,27.57
2019-02-15T06:44:08.932Z,28.50
2019-02-15T06:46:37.221Z,27.60
2019-02-15T06:49:05.521Z,27.47
2019-02-15T06:51:33.787Z,27.33
2019-02-15T06:54:02.147Z,29.57
2019-02-15T06:56:30.548Z,26.43
2019-02-15T06:59:09.368Z,27.17
2019-02-15T07:01:39.273Z,28.87
2019-02-15T07:04:21.320Z,28.13
2019-02-15T07:06:49.599Z,28.47
2019-02-15T07:09:17.849Z,28.20
2019-02-15T07:11:46.113Z,30.10
2019-02-15T07:14:14.377Z,31.03
2019-02-15T07:16:42.717Z,32.47
2019-02-15T07:19:10.972Z,32.47
2019-02-15T07:21:39.264Z,32.67
2019-02-15T07:24:07.532Z,31.77
2019-02-15T07:26:35.797Z,29.43
2019-02-15T07:29:04.087Z,31.03
2019-02-15T07:31:32.348Z,32.40
2019-02-15T07:34:00.613Z,31.63
2019-02-15T07:36:28.879Z,34.50
2019-02-15T07:38:57.144Z,33.13
2019-02-15T07:41:25.410Z,35.57
2019-02-15T07:43:53.676Z,32.90
2019-02-15T07:46:22.040Z,35.33
2019-02-15T07:48:50.307Z,34.70
2019-02-15T07:51:18.567Z,36.50
2019-02-15T07:53:46.844Z,40.23
2019-02-15T07:56:15.130Z,41.67
2019-02-15T07:58:43.390Z,39.90
2019-02-15T08:01:11.654Z,44.30
2019-02-15T08:03:39.921Z,43.13
2019-02-15T08:06:08.177Z,44.80
2019-02-15T08:08:36.465Z,45.83
2019-02-15T08:11:04.723Z,45.43
2019-02-15T08:13:32.986Z,46.47
2019-02-15T08:16:02.783Z,47.10
2019-02-15T08:18:31.315Z,48.27
2019-02-15T08:20:59.651Z,49.80
2019-02-15T08:23:27.947Z,49.83
2019-02-15T08:25:56.209Z,50.60
2019-02-15T08:28:24.460Z,51.07
2019-02-15T08:30:52.729Z,52.23
2019-02-15T08:33:20.990Z,52.77
2019-02-15T08:35:49.262Z,52.70
2019-02-15T08:38:17.570Z,57.53
2019-02-15T08:40:45.824Z,60.83
2019-02-15T08:43:14.093Z,63.10
2019-02-15T08:45:42.360Z,63.27
2019-02-15T08:48:10.619Z,66.93
2019-02-15T08:50:38.891Z,66.37
2019-02-15T08:53:07.158Z,74.00
2019-02-15T08:55:35.434Z,78.30
2019-02-15T08:58:03.709Z,74.97
2019-02-15T09:00:31.968Z,76.53
2019-02-15T09:03:00.245Z,74.33
2019-02-15T09:05:28.523Z,76.80
2019-02-15T09:07:56.785Z,66.13
2019-02-15T09:10:25.049Z,62.37
2019-02-15T09:12:53.301Z,56.73
2019-02-15T09:15:23.430Z,56.30
2019-02-15T09:17:51.718Z,54.53
2019-02-15T09:20:20.005Z,47.43
2019-02-15T09:22:48.268Z,58.17
2019-02-15T09:25:16.520Z,51.37
2019-02-15T09:27:46.425Z,45.43
2019-02-15T09:30:15.093Z,47.30
2019-02-15T09:32:43.351Z,43.30
2019-02-15T09:35:12.186Z,44.97
2019-02-15T09:37:40.441Z,46.63
2019-02-15T09:40:10.134Z,39.53
2019-02-15T09:42:38.404Z,43.77
2019-02-15T09:45:09.926Z,41.57
2019-02-15T09:47:38.190Z,37.30
2019-02-15T09:50:09.746Z,42.57
2019-02-15T09:52:38.771Z,41.07
2019-02-15T09:55:07.072Z,36.47
2019-02-15T09:57:35.334Z,36.30
2019-02-15T10:00:03.785Z,34.33
2019-02-15T10:02:32.058Z,34.77
2019-02-15T10:05:00.370Z,35.10
2019-02-15T10:07:28.643Z,33.03
2019-02-15T10:09:56.902Z,30.87
2019-02-15T10:12:25.171Z,30.73
2019-02-15T10:14:53.441Z,29.77
2019-02-15T10:17:21.713Z,30.33
2019-02-15T10:19:49.976Z,28.57
2019-02-15T10:22:18.248Z,29.20
2019-02-15T10:24:46.524Z,30.57
2019-02-15T10:27:14.789Z,28.87
2019-02-15T10:29:43.058Z,28.00
2019-02-15T10:32:11.321Z,28.83
2019-02-15T10:34:39.652Z,27.40
2019-02-15T10:37:07.946Z,28.20
2019-02-15T10:39:36.275Z,28.23
2019-02-15T10:42:04.544Z,29.60
2019-02-15T10:44:32.803Z,27.80
2019-02-15T10:47:01.073Z,26.97
2019-02-15T10:49:29.372Z,26.83
2019-02-15T10:51:57.642Z,25.07
2019-02-15T10:54:25.898Z,28.10
2019-02-15T10:56:54.260Z,26.50
2019-02-15T10:59:22.521Z,26.10
2019-02-15T11:01:50.781Z,25.47
2019-02-15T11:04:19.065Z,25.33
2019-02-15T11:06:47.390Z,25.77
2019-02-15T11:09:15.730Z,25.40
2019-02-15T11:11:43.991Z,26.80
2019-02-15T11:14:12.258Z,26.53
2019-02-15T11:16:46.953Z,26.90
2019-02-15T11:19:10.530Z,26.27
2019-02-15T11:21:38.793Z,26.03
2019-02-15T11:24:07.079Z,26.00
2019-02-15T11:26:35.361Z,24.20
2019-02-15T11:29:03.627Z,23.50
2019-02-15T11:31:31.881Z,24.27
2019-02-15T11:34:00.146Z,26.60
2019-02-15T11:36:29.804Z,26.57
2019-02-15T11:38:58.254Z,26.63
2019-02-15T11:41:26.591Z,25.13
2019-02-15T11:43:54.848Z,24.70
2019-02-15T11:46:23.115Z,23.87
2019-02-15T11:48:51.382Z,21.97
2019-02-15T11:51:19.653Z,24.43
2019-02-15T11:53:48.130Z,23.00
2019-02-15T11:56:16.366Z,24.27
2019-02-15T11:58:44.632Z,22.93
2019-02-15T12:01:12.893Z,23.57
2019-02-15T12:03:41.156Z,22.53
2019-02-15T12:06:09.442Z,22.27
2019-02-15T12:08:37.707Z,23.70
2019-02-15T12:11:05.966Z,22.10
2019-02-15T12:13:34.324Z,23.77
2019-02-15T12:16:02.732Z,23.27
2019-02-15T12:18:37.809Z,22.80
2019-02-15T12:21:06.173Z,21.13
2019-02-15T12:23:34.649Z,21.93
2019-02-15T12:26:02.908Z,22.60
2019-02-15T12:28:31.209Z,23.27
2019-02-15T12:30:59.460Z,23.37
2019-02-15T12:33:27.734Z,22.83
2019-02-15T12:35:56.014Z,23.33
2019-02-15T12:38:24.284Z,22.33
2019-02-15T12:40:52.621Z,23.43
2019-02-15T12:43:21.048Z,22.97
2019-02-15T12:45:49.535Z,23.00
2019-02-15T12:48:17.868Z,20.67
2019-02-15T12:50:46.214Z,21.83
2019-02-15T12:53:14.463Z,22.27
2019-02-15T12:55:42.732Z,22.70
2019-02-15T12:58:11.096Z,23.30
2019-02-15T13:00:39.367Z,22.93
2019-02-15T13:03:07.818Z,23.03
2019-02-15T13:05:36.101Z,23.13
2019-02-15T13:08:04.360Z,23.73
2019-02-15T13:10:34.549Z,23.70
2019-02-15T13:13:02.804Z,22.23
2019-02-15T13:15:31.241Z,21.53
2019-02-15T13:17:59.511Z,22.40
2019-02-15T13:20:27.891Z,21.30
2019-02-15T13:22:56.292Z,19.37
2019-02-15T13:25:24.745Z,19.67
2019-02-15T13:27:53.235Z,18.83
2019-02-15T13:30:21.664Z,19.17
2019-02-15T13:32:50.109Z,20.53
2019-02-15T13:35:23.469Z,19.47
2019-02-15T13:37:52.037Z,19.90
2019-02-15T13:40:20.323Z,20.57
2019-02-15T13:42:48.668Z,21.10
2019-02-15T13:45:17.217Z,20.73
2019-02-15T13:47:45.646Z,21.50
2019-02-15T13:50:15.036Z,21.50
2019-02-15T13:52:43.990Z,20.43
2019-02-15T13:55:12.339Z,21.87
2019-02-15T13:57:40.632Z,20.53
2019-02-15T14:00:14.465Z,20.10
2019-02-15T14:02:43.239Z,21.37
2019-02-15T14:05:12.354Z,21.50
2019-02-15T14:07:41.343Z,20.63
2019-02-15T14:10:14.295Z,21.03
2019-02-15T14:12:42.657Z,21.17
2019-02-15T14:15:12.146Z,22.23
2019-02-15T14:17:44.901Z,22.10
2019-02-15T14:20:13.962Z,22.27
2019-02-15T14:22:42.224Z,22.27
2019-02-15T14:25:12.675Z,21.87
2019-02-15T14:27:40.979Z,22.17
2019-02-15T14:30:11.735Z,23.47
2019-02-15T14:32:40.090Z,21.90
2019-02-15T14:35:10.158Z,22.33
2019-02-15T14:37:38.394Z,23.47
2019-02-15T14:40:09.112Z,21.90
2019-02-15T14:42:37.412Z,23.07
2019-02-15T14:45:07.461Z,22.27
2019-02-15T14:47:35.777Z,22.67
2019-02-15T14:50:04.619Z,22.13
2019-02-15T14:52:32.938Z,21.63
2019-02-15T14:55:01.203Z,21.90
2019-02-15T14:57:29.463Z,22.17
2019-02-15T14:59:57.830Z,22.30
2019-02-15T15:02:26.225Z,23.07
2019-02-15T15:04:54.508Z,21.10
2019-02-15T15:07:22.778Z,21.10
2019-02-15T15:09:51.064Z,21.03
2019-02-15T15:12:19.338Z,21.63
2019-02-15T15:14:47.636Z,21.00
2019-02-15T15:17:15.900Z,22.53
2019-02-15T15:19:45.082Z,20.13
2019-02-15T15:22:17.717Z,20.30
2019-02-15T15:24:46.072Z,20.83
2019-02-15T15:27:23.140Z,19.33
2019-02-15T15:29:59.993Z,19.47
2019-02-15T15:32:28.271Z,19.97
2019-02-15T15:35:02.110Z,20.13
2019-02-15T15:37:30.374Z,20.57
2019-02-15T15:39:58.657Z,19.37
2019-02-15T15:42:27.009Z,20.07
2019-02-15T15:44:55.363Z,18.67
2019-02-15T15:47:23.739Z,19.00
2019-02-15T15:49:52.036Z,18.90
2019-02-15T15:52:20.394Z,18.27
2019-02-15T15:54:48.677Z,18.27
2019-02-15T15:57:16.965Z,18.87
2019-02-15T15:59:45.238Z,18.53
2019-02-15T16:02:13.535Z,17.53
2019-02-15T16:04:41.792Z,17.37
2019-02-15T16:07:10.059Z,17.53
2019-02-15T16:09:38.318Z,17.37
2019-02-15T16:12:06.569Z,17.13
2019-02-15T16:14:34.856Z,17.10
2019-02-15T16:17:03.121Z,16.10
2019-02-15T16:19:31.385Z,16.17
2019-02-15T16:21:59.675Z,16.63
2019-02-15T16:24:27.937Z,15.73
2019-02-15T16:26:56.238Z,15.00
2019-02-15T16:29:24.562Z,15.43
2019-02-15T16:31:52.829Z,14.87
2019-02-15T16:34:21.094Z,16.10
2019-02-15T16:36:49.390Z,16.23
2019-02-15T16:39:17.696Z,16.40
2019-02-15T16:41:45.981Z,15.57
2019-02-15T16:44:14.248Z,14.77
2019-02-15T16:46:42.515Z,16.43
2019-02-15T16:49:10.791Z,15.93
2019-02-15T16:51:39.047Z,15.57
2019-02-15T16:54:07.315Z,14.97
2019-02-15T16:56:35.577Z,13.17
2019-02-15T16:59:03.843Z,14.70
2019-02-15T17:01:32.116Z,14.87
2019-02-15T17:04:00.378Z,15.20
2019-02-15T17:06:28.662Z,15.30
2019-02-15T17:08:56.923Z,15.73
2019-02-15T17:11:25.178Z,14.80
2019-02-15T17:13:53.482Z,15.60
2019-02-15T17:16:21.727Z,16.17
2019-02-15T17:18:52.235Z,16.70
2019-02-15T17:21:19.970Z,16.73
2019-02-15T17:23:48.232Z,17.50
2019-02-15T17:26:16.517Z,16.40
2019-02-15T17:28:44.775Z,17.23
2019-02-15T17:31:13.035Z,17.73
2019-02-15T17:33:41.300Z,19.43
2019-02-15T17:36:09.563Z,18.90
2019-02-15T17:38:37.884Z,19.20
2019-02-15T17:41:06.165Z,18.00
2019-02-15T17:43:34.450Z,18.20
2019-02-15T17:46:02.719Z,19.03
2019-02-15T17:48:30.973Z,21.17
2019-02-15T17:50:59.258Z,21.33
2019-02-15T17:53:27.529Z,20.90
2019-02-15T17:55:55.805Z,20.00
2019-02-15T17:58:24.062Z,18.07
2019-02-15T18:00:52.331Z,18.30
2019-02-15T18:03:20.613Z,20.47
2019-02-15T18:05:48.867Z,22.03
2019-02-15T18:08:17.133Z,20.90
2019-02-15T18:10:45.393Z,22.57
2019-02-15T18:13:13.658Z,21.13
2019-02-15T18:15:41.929Z,20.27
2019-02-15T18:18:10.191Z,21.33
2019-02-15T18:20:38.478Z,22.37
2019-02-15T18:23:06.749Z,22.03
2019-02-15T18:25:35.028Z,21.23
2019-02-15T18:28:03.286Z,21.47
2019-02-15T18:30:31.576Z,22.03
2019-02-15T18:32:59.838Z,26.53
2019-02-15T18:35:28.456Z,25.00
2019-02-15T18:37:56.719Z,24.97
2019-02-15T18:40:24.978Z,25.00
2019-02-15T18:42:53.390Z,24.87
2019-02-15T18:45:21.879Z,24.70
2019-02-15T18:47:50.471Z,26.20
2019-02-15T18:50:18.914Z,24.63
2019-02-15T18:52:47.191Z,24.00
2019-02-15T18:55:15.462Z,25.17
2019-02-15T18:57:43.715Z,26.80
2019-02-15T19:00:15.884Z,28.47
2019-02-15T19:02:46.090Z,28.03
2019-02-15T19:05:14.444Z,28.87
2019-02-15T19:07:42.700Z,27.67
2019-02-15T19:10:14.190Z,24.60
2019-02-15T19:12:42.528Z,26.47
2019-02-15T19:15:13.299Z,25.23
2019-02-15T19:17:41.571Z,28.43
2019-02-15T19:20:12.234Z,29.03
2019-02-15T19:22:40.504Z,30.10
2019-02-15T19:25:11.027Z,34.47
2019-02-15T19:27:40.930Z,34.73
2019-02-15T19:30:15.334Z,33.70
2019-02-15T19:32:43.698Z,34.33
2019-02-15T19:35:12.030Z,37.17
2019-02-15T19:37:41.959Z,35.97
2019-02-15T19:40:15.340Z,36.60
2019-02-15T19:42:44.962Z,37.63
2019-02-15T19:45:13.481Z,38.30
2019-02-15T19:47:41.776Z,37.30
2019-02-15T19:50:13.304Z,37.97
2019-02-15T19:52:41.692Z,36.43
2019-02-15T19:55:10.806Z,36.73
2019-02-15T19:57:39.072Z,36.87
2019-02-15T20:00:19.042Z,37.70
2019-02-15T20:02:49.129Z,36.33
2019-02-15T20:05:20.609Z,37.23
2019-02-15T20:07:49.028Z,35.70
2019-02-15T20:10:24.463Z,34.80
2019-02-15T20:12:56.974Z,35.67
2019-02-15T20:15:25.316Z,36.03
2019-02-15T20:17:53.663Z,33.10
2019-02-15T20:20:22.023Z,36.07
2019-02-15T20:22:59.306Z,34.83
2019-02-15T20:25:27.822Z,33.97
2019-02-15T20:27:56.312Z,34.67
2019-02-15T20:30:24.600Z,32.43
2019-02-15T20:32:52.998Z,34.63
2019-02-15T20:35:23.042Z,32.67
2019-02-15T20:37:51.861Z,36.13
2019-02-15T20:40:21.892Z,36.97
2019-02-15T20:42:52.074Z,36.60
2019-02-15T20:45:23.682Z,37.23
2019-02-15T20:47:52.315Z,39.97
2019-02-15T20:50:21.109Z,36.73
2019-02-15T20:52:49.473Z,39.00
2019-02-15T20:55:19.382Z,39.73
2019-02-15T20:57:49.826Z,38.70
2019-02-15T21:00:30.848Z,38.70
2019-02-15T21:02:59.284Z,37.67
2019-02-15T21:05:27.668Z,38.00
2019-02-15T21:07:55.954Z,39.10
2019-02-15T21:10:24.220Z,38.43
2019-02-15T21:12:52.545Z,40.00
2019-02-15T21:15:24.189Z,39.77
2019-02-15T21:17:52.589Z,40.50
2019-02-15T21:20:20.951Z,39.10
2019-02-15T21:22:49.310Z,39.03
2019-02-15T21:25:17.793Z,39.67
2019-02-15T21:27:46.049Z,38.50
2019-02-15T21:30:18.399Z,40.07
2019-02-15T21:32:46.696Z,39.23
2019-02-15T21:35:15.146Z,39.10
2019-02-15T21:37:43.406Z,38.30
2019-02-15T21:40:17.194Z,39.60
2019-02-15T21:42:45.462Z,36.93
2019-02-15T21:45:13.892Z,33.93
2019-02-15T21:47:42.164Z,38.53
2019-02-15T21:50:17.068Z,40.40
2019-02-15T21:52:44.353Z,41.33
2019-02-15T21:55:12.986Z,43.30
2019-02-15T21:57:41.349Z,41.27
2019-02-15T22:00:17.738Z,39.53
2019-02-15T22:02:46.023Z,40.63
2019-02-15T22:05:14.325Z,39.50
2019-02-15T22:07:42.586Z,39.77
2019-02-15T22:10:10.896Z,38.50
2019-02-15T22:12:39.183Z,37.83
2019-02-15T22:15:12.174Z,37.93
2019-02-15T22:17:40.472Z,37.33
2019-02-15T22:20:25.920Z,37.00
2019-02-15T22:22:46.674Z,37.50
2019-02-15T22:25:14.936Z,40.20
2019-02-15T22:27:43.223Z,37.73
2019-02-15T22:30:14.211Z,36.97
2019-02-15T22:32:42.798Z,38.07
2019-02-15T22:35:11.149Z,41.43
2019-02-15T22:37:41.111Z,38.03
2019-02-15T22:40:31.235Z,37.00
2019-02-15T22:43:05.295Z,38.47
2019-02-15T22:45:33.527Z,39.47
2019-02-15T22:48:01.814Z,38.63
2019-02-15T22:50:36.177Z,37.33
2019-02-15T22:53:00.071Z,38.60
2019-02-15T22:55:28.356Z,39.53
2019-02-15T22:57:56.614Z,40.03
2019-02-15T23:00:56.438Z,37.80
2019-02-15T23:03:26.465Z,37.83
2019-02-15T23:05:54.924Z,37.17
2019-02-15T23:08:23.164Z,37.37
2019-02-15T23:10:51.433Z,38.23
2019-02-15T23:13:19.758Z,38.20
2019-02-15T23:15:48.122Z,37.37
2019-02-15T23:18:16.370Z,39.33
2019-02-15T23:20:45.607Z,36.73
2019-02-15T23:23:14.022Z,38.57
2019-02-15T23:25:42.296Z,37.70
2019-02-15T23:28:10.566Z,35.57
2019-02-15T23:30:38.879Z,37.17
2019-02-15T23:33:07.163Z,36.17
2019-02-15T23:35:35.460Z,32.77
2019-02-15T23:38:03.785Z,33.67
2019-02-15T23:40:32.160Z,34.20
2019-02-15T23:43:00.433Z,34.63
2019-02-15T23:45:28.700Z,36.87
2019-02-15T23:47:56.975Z,36.87
2019-02-15T23:50:25.277Z,34.43
2019-02-15T23:52:53.546Z,35.23
2019-02-15T23:55:21.819Z,34.50
2019-02-15T23:57:50.078Z,34.47
